sensor_id;sensor_type;location;lat;lon;timestamp;P1;durP1;ratioP1;P2;durP2;ratioP2
62256;SDS011;48240;52.962;5.790;2023-04-24T03:50:55;1.00;;;0.90;;
62256;SDS011;48240;52.962;5.790;2023-04-24T03:53:21;1.20;;;1.10;;
62256;SDS011;48240;52.962;5.790;2023-04-24T03:55:47;1.30;;;1.20;;
62256;SDS011;48240;52.962;5.790;2023-04-24T03:58:13;1.63;;;1.10;;
62256;SDS011;48240;52.962;5.790;2023-04-24T04:00:39;1.35;;;1.00;;
62256;SDS011;48240;52.962;5.790;2023-04-24T04:03:06;1.35;;;1.10;;
62256;SDS011;48240;52.962;5.790;2023-04-24T04:05:32;1.30;;;1.20;;
62256;SDS011;48240;52.962;5.790;2023-04-24T04:07:58;1.15;;;1.00;;
62256;SDS011;48240;52.962;5.790;2023-04-24T04:10:25;2.13;;;1.10;;
62256;SDS011;48240;52.962;5.790;2023-04-24T04:12:51;1.23;;;1.02;;
62256;SDS011;48240;52.962;5.790;2023-04-24T04:15:17;1.30;;;1.00;;
62256;SDS011;48240;52.962;5.790;2023-04-24T04:17:43;1.58;;;0.93;;
62256;SDS011;48240;52.962;5.790;2023-04-24T04:20:10;1.35;;;0.80;;
62256;SDS011;48240;52.962;5.790;2023-04-24T04:22:37;1.52;;;1.35;;
62256;SDS011;48240;52.962;5.790;2023-04-24T04:25:03;2.20;;;0.90;;
62256;SDS011;48240;52.962;5.790;2023-04-24T04:27:29;2.00;;;1.00;;
62256;SDS011;48240;52.962;5.790;2023-04-24T04:30:03;1.20;;;1.10;;
62256;SDS011;48240;52.962;5.790;2023-04-24T04:32:32;0.88;;;0.70;;
62256;SDS011;48240;52.962;5.790;2023-04-24T04:34:59;1.80;;;1.20;;
62256;SDS011;48240;52.962;5.790;2023-04-24T04:37:31;1.67;;;1.10;;
62256;SDS011;48240;52.962;5.790;2023-04-24T04:39:58;2.38;;;1.40;;
62256;SDS011;48240;52.962;5.790;2023-04-24T04:42:25;1.10;;;1.00;;
62256;SDS011;48240;52.962;5.790;2023-04-24T04:44:52;2.30;;;0.90;;
62256;SDS011;48240;52.962;5.790;2023-04-24T04:47:18;0.77;;;0.73;;
62256;SDS011;48240;52.962;5.790;2023-04-24T04:49:50;1.30;;;0.80;;
62256;SDS011;48240;52.962;5.790;2023-04-24T04:52:17;1.15;;;0.70;;
62256;SDS011;48240;52.962;5.790;2023-04-24T04:54:43;0.90;;;0.75;;
62256;SDS011;48240;52.962;5.790;2023-04-24T04:57:10;1.33;;;0.70;;
62256;SDS011;48240;52.962;5.790;2023-04-24T04:59:37;2.60;;;0.73;;
62256;SDS011;48240;52.962;5.790;2023-04-24T05:02:03;0.82;;;0.60;;
62256;SDS011;48240;52.962;5.790;2023-04-24T05:04:29;1.58;;;0.85;;
62256;SDS011;48240;52.962;5.790;2023-04-24T05:06:55;1.17;;;0.90;;
62256;SDS011;48240;52.962;5.790;2023-04-24T05:09:21;0.98;;;0.80;;
62256;SDS011;48240;52.962;5.790;2023-04-24T05:11:47;0.80;;;0.60;;
62256;SDS011;48240;52.962;5.790;2023-04-24T05:14:13;2.70;;;0.80;;
62256;SDS011;48240;52.962;5.790;2023-04-24T05:16:39;0.70;;;0.50;;
62256;SDS011;48240;52.962;5.790;2023-04-24T05:19:06;4.35;;;0.80;;
62256;SDS011;48240;52.962;5.790;2023-04-24T05:21:32;0.82;;;0.75;;
62256;SDS011;48240;52.962;5.790;2023-04-24T05:23:58;1.73;;;0.90;;
62256;SDS011;48240;52.962;5.790;2023-04-24T05:26:24;2.45;;;0.90;;
62256;SDS011;48240;52.962;5.790;2023-04-24T05:28:50;1.92;;;0.80;;
62256;SDS011;48240;52.962;5.790;2023-04-24T05:31:16;2.80;;;0.60;;
62256;SDS011;48240;52.962;5.790;2023-04-24T05:33:42;0.63;;;0.60;;
62256;SDS011;48240;52.962;5.790;2023-04-24T05:36:08;1.30;;;0.52;;
62256;SDS011;48240;52.962;5.790;2023-04-24T05:38:35;1.50;;;0.80;;
62256;SDS011;48240;52.962;5.790;2023-04-24T05:41:01;1.25;;;0.63;;
62256;SDS011;48240;52.962;5.790;2023-04-24T05:43:27;1.17;;;0.70;;
62256;SDS011;48240;52.962;5.790;2023-04-24T05:45:53;2.38;;;0.70;;
62256;SDS011;48240;52.962;5.790;2023-04-24T05:48:20;0.65;;;0.65;;
62256;SDS011;48240;52.962;5.790;2023-04-24T05:50:47;2.45;;;1.00;;
62256;SDS011;48240;52.962;5.790;2023-04-24T05:53:14;0.70;;;0.70;;
62256;SDS011;48240;52.962;5.790;2023-04-24T05:55:40;1.70;;;1.10;;
62256;SDS011;48240;52.962;5.790;2023-04-24T05:58:06;1.45;;;0.80;;
62256;SDS011;48240;52.962;5.790;2023-04-24T06:00:32;1.83;;;0.90;;
62256;SDS011;48240;52.962;5.790;2023-04-24T06:02:59;1.13;;;0.80;;
62256;SDS011;48240;52.962;5.790;2023-04-24T06:05:25;1.63;;;0.90;;
62256;SDS011;48240;52.962;5.790;2023-04-24T06:07:51;3.40;;;2.10;;
62256;SDS011;48240;52.962;5.790;2023-04-24T06:10:17;3.80;;;2.00;;
62256;SDS011;48240;52.962;5.790;2023-04-24T06:12:44;3.38;;;1.63;;
62256;SDS011;48240;52.962;5.790;2023-04-24T06:15:10;2.85;;;1.30;;
62256;SDS011;48240;52.962;5.790;2023-04-24T06:17:36;4.47;;;2.92;;
62256;SDS011;48240;52.962;5.790;2023-04-24T06:20:02;5.50;;;2.47;;
62256;SDS011;48240;52.962;5.790;2023-04-24T06:22:30;3.42;;;1.38;;
62256;SDS011;48240;52.962;5.790;2023-04-24T06:24:56;2.25;;;0.93;;
62256;SDS011;48240;52.962;5.790;2023-04-24T06:27:22;2.83;;;0.90;;
62256;SDS011;48240;52.962;5.790;2023-04-24T06:29:49;5.05;;;1.00;;
62256;SDS011;48240;52.962;5.790;2023-04-24T06:32:19;3.33;;;1.35;;
62256;SDS011;48240;52.962;5.790;2023-04-24T06:34:45;2.53;;;0.90;;
62256;SDS011;48240;52.962;5.790;2023-04-24T06:37:11;2.42;;;0.93;;
62256;SDS011;48240;52.962;5.790;2023-04-24T06:39:37;1.65;;;1.00;;
62256;SDS011;48240;52.962;5.790;2023-04-24T06:42:03;2.50;;;0.70;;
62256;SDS011;48240;52.962;5.790;2023-04-24T06:44:29;3.50;;;1.00;;
62256;SDS011;48240;52.962;5.790;2023-04-24T06:46:55;2.03;;;1.20;;
62256;SDS011;48240;52.962;5.790;2023-04-24T06:49:21;2.38;;;1.20;;
62256;SDS011;48240;52.962;5.790;2023-04-24T06:51:48;2.97;;;1.30;;
62256;SDS011;48240;52.962;5.790;2023-04-24T06:54:14;3.90;;;1.48;;
62256;SDS011;48240;52.962;5.790;2023-04-24T06:56:40;5.38;;;1.90;;
62256;SDS011;48240;52.962;5.790;2023-04-24T06:59:06;2.70;;;1.90;;
62256;SDS011;48240;52.962;5.790;2023-04-24T07:01:32;4.35;;;1.40;;
62256;SDS011;48240;52.962;5.790;2023-04-24T07:03:58;3.33;;;2.00;;
62256;SDS011;48240;52.962;5.790;2023-04-24T07:06:24;2.53;;;1.63;;
62256;SDS011;48240;52.962;5.790;2023-04-24T07:08:52;3.72;;;1.48;;
62256;SDS011;48240;52.962;5.790;2023-04-24T07:11:18;3.53;;;1.70;;
62256;SDS011;48240;52.962;5.790;2023-04-24T07:13:45;5.63;;;2.00;;
62256;SDS011;48240;52.962;5.790;2023-04-24T07:16:11;2.92;;;1.80;;
62256;SDS011;48240;52.962;5.790;2023-04-24T07:18:37;7.32;;;2.10;;
62256;SDS011;48240;52.962;5.790;2023-04-24T07:21:04;4.32;;;2.00;;
62256;SDS011;48240;52.962;5.790;2023-04-24T07:23:32;4.72;;;2.30;;
62256;SDS011;48240;52.962;5.790;2023-04-24T07:25:58;3.08;;;1.83;;
62256;SDS011;48240;52.962;5.790;2023-04-24T07:28:24;4.78;;;2.45;;
62256;SDS011;48240;52.962;5.790;2023-04-24T07:30:50;6.13;;;2.53;;
62256;SDS011;48240;52.962;5.790;2023-04-24T07:33:19;9.05;;;2.50;;
62256;SDS011;48240;52.962;5.790;2023-04-24T07:35:45;3.72;;;2.13;;
62256;SDS011;48240;52.962;5.790;2023-04-24T07:38:11;5.53;;;2.22;;
62256;SDS011;48240;52.962;5.790;2023-04-24T07:40:37;7.18;;;2.28;;
62256;SDS011;48240;52.962;5.790;2023-04-24T07:43:03;7.78;;;2.30;;
62256;SDS011;48240;52.962;5.790;2023-04-24T07:45:29;6.43;;;2.40;;
62256;SDS011;48240;52.962;5.790;2023-04-24T07:47:56;10.32;;;2.10;;
62256;SDS011;48240;52.962;5.790;2023-04-24T07:50:22;3.65;;;2.17;;
62256;SDS011;48240;52.962;5.790;2023-04-24T07:52:48;5.10;;;2.03;;
62256;SDS011;48240;52.962;5.790;2023-04-24T07:55:15;7.63;;;2.13;;
62256;SDS011;48240;52.962;5.790;2023-04-24T07:57:41;12.27;;;1.90;;
62256;SDS011;48240;52.962;5.790;2023-04-24T08:00:07;4.55;;;1.80;;
62256;SDS011;48240;52.962;5.790;2023-04-24T08:02:34;8.65;;;2.20;;
62256;SDS011;48240;52.962;5.790;2023-04-24T08:05:00;2.92;;;1.90;;
62256;SDS011;48240;52.962;5.790;2023-04-24T08:07:28;4.70;;;2.17;;
62256;SDS011;48240;52.962;5.790;2023-04-24T08:09:54;12.32;;;2.13;;
62256;SDS011;48240;52.962;5.790;2023-04-24T08:12:20;6.13;;;2.28;;
62256;SDS011;48240;52.962;5.790;2023-04-24T08:14:46;6.68;;;2.13;;
62256;SDS011;48240;52.962;5.790;2023-04-24T08:17:12;12.75;;;2.20;;
62256;SDS011;48240;52.962;5.790;2023-04-24T08:19:39;5.97;;;2.08;;
62256;SDS011;48240;52.962;5.790;2023-04-24T08:22:16;5.72;;;2.08;;
62256;SDS011;48240;52.962;5.790;2023-04-24T08:24:42;7.20;;;2.20;;
62256;SDS011;48240;52.962;5.790;2023-04-24T08:27:09;7.95;;;2.38;;
62256;SDS011;48240;52.962;5.790;2023-04-24T08:29:36;7.82;;;2.17;;
62256;SDS011;48240;52.962;5.790;2023-04-24T08:32:02;5.30;;;2.20;;
62256;SDS011;48240;52.962;5.790;2023-04-24T08:34:28;13.25;;;3.03;;
62256;SDS011;48240;52.962;5.790;2023-04-24T08:36:54;7.30;;;2.25;;
62256;SDS011;48240;52.962;5.790;2023-04-24T08:39:20;12.93;;;2.70;;
62256;SDS011;48240;52.962;5.790;2023-04-24T08:41:46;4.97;;;2.15;;
62256;SDS011;48240;52.962;5.790;2023-04-24T08:44:14;6.03;;;2.22;;
62256;SDS011;48240;52.962;5.790;2023-04-24T08:46:42;5.53;;;2.17;;
62256;SDS011;48240;52.962;5.790;2023-04-24T08:49:10;6.38;;;2.20;;
62256;SDS011;48240;52.962;5.790;2023-04-24T08:51:36;5.78;;;2.30;;
62256;SDS011;48240;52.962;5.790;2023-04-24T08:54:03;6.40;;;2.20;;
62256;SDS011;48240;52.962;5.790;2023-04-24T08:56:30;6.57;;;1.95;;
62256;SDS011;48240;52.962;5.790;2023-04-24T08:58:58;7.30;;;2.17;;
62256;SDS011;48240;52.962;5.790;2023-04-24T09:35:14;12.57;;;2.30;;
62256;SDS011;48240;52.962;5.790;2023-04-24T09:37:43;7.20;;;2.40;;
62256;SDS011;48240;52.962;5.790;2023-04-24T09:40:10;8.73;;;2.20;;
62256;SDS011;48240;52.962;5.790;2023-04-24T09:42:37;6.38;;;2.28;;
62256;SDS011;48240;52.962;5.790;2023-04-24T09:45:04;9.80;;;2.20;;
62256;SDS011;48240;52.962;5.790;2023-04-24T09:47:37;8.35;;;2.38;;
62256;SDS011;48240;52.962;5.790;2023-04-24T09:50:16;8.60;;;2.47;;
62256;SDS011;48240;52.962;5.790;2023-04-24T09:52:43;10.77;;;2.22;;
62256;SDS011;48240;52.962;5.790;2023-04-24T09:55:13;5.53;;;1.90;;
62256;SDS011;48240;52.962;5.790;2023-04-24T09:57:51;8.10;;;2.50;;
62256;SDS011;48240;52.962;5.790;2023-04-24T10:00:30;9.43;;;2.40;;
62256;SDS011;48240;52.962;5.790;2023-04-24T10:03:00;6.53;;;2.03;;
62256;SDS011;48240;52.962;5.790;2023-04-24T10:05:27;4.63;;;2.05;;
62256;SDS011;48240;52.962;5.790;2023-04-24T10:07:58;7.50;;;1.95;;
62256;SDS011;48240;52.962;5.790;2023-04-24T10:10:24;7.07;;;1.90;;
62256;SDS011;48240;52.962;5.790;2023-04-24T10:12:50;8.32;;;2.00;;
62256;SDS011;48240;52.962;5.790;2023-04-24T10:15:16;9.82;;;1.95;;
62256;SDS011;48240;52.962;5.790;2023-04-24T10:17:49;5.35;;;1.90;;
62256;SDS011;48240;52.962;5.790;2023-04-24T10:20:19;4.95;;;1.90;;
62256;SDS011;48240;52.962;5.790;2023-04-24T10:22:49;9.07;;;1.92;;
62256;SDS011;48240;52.962;5.790;2023-04-24T10:25:17;5.25;;;2.03;;
62256;SDS011;48240;52.962;5.790;2023-04-24T10:27:44;6.50;;;2.00;;
62256;SDS011;48240;52.962;5.790;2023-04-24T10:30:12;6.70;;;1.85;;
62256;SDS011;48240;52.962;5.790;2023-04-24T10:32:39;5.55;;;1.92;;
62256;SDS011;48240;52.962;5.790;2023-04-24T10:35:08;4.35;;;1.55;;
62256;SDS011;48240;52.962;5.790;2023-04-24T10:37:36;6.93;;;1.90;;
62256;SDS011;48240;52.962;5.790;2023-04-24T10:40:03;7.05;;;2.03;;
62256;SDS011;48240;52.962;5.790;2023-04-24T10:42:30;4.32;;;1.60;;
62256;SDS011;48240;52.962;5.790;2023-04-24T10:44:56;5.72;;;1.92;;
62256;SDS011;48240;52.962;5.790;2023-04-24T10:47:23;4.97;;;1.70;;
62256;SDS011;48240;52.962;5.790;2023-04-24T10:49:50;4.75;;;1.90;;
62256;SDS011;48240;52.962;5.790;2023-04-24T10:52:17;4.68;;;1.77;;
62256;SDS011;48240;52.962;5.790;2023-04-24T10:54:46;8.10;;;1.63;;
62256;SDS011;48240;52.962;5.790;2023-04-24T10:59:40;3.92;;;1.45;;
62256;SDS011;48240;52.962;5.790;2023-04-24T11:02:07;4.00;;;1.60;;
62256;SDS011;48240;52.962;5.790;2023-04-24T11:04:33;4.63;;;1.60;;
62256;SDS011;48240;52.962;5.790;2023-04-24T11:07:02;5.78;;;1.50;;
62256;SDS011;48240;52.962;5.790;2023-04-24T11:09:32;5.38;;;1.58;;
62256;SDS011;48240;52.962;5.790;2023-04-24T11:20:06;6.25;;;1.58;;
62256;SDS011;48240;52.962;5.790;2023-04-24T11:22:33;7.05;;;1.65;;
62256;SDS011;48240;52.962;5.790;2023-04-24T11:25:03;6.03;;;1.70;;
62256;SDS011;48240;52.962;5.790;2023-04-24T11:27:30;3.95;;;1.33;;
62256;SDS011;48240;52.962;5.790;2023-04-24T11:30:00;5.93;;;1.58;;
62256;SDS011;48240;52.962;5.790;2023-04-24T11:32:27;5.20;;;1.67;;
62256;SDS011;48240;52.962;5.790;2023-04-24T11:37:20;8.02;;;1.95;;
62256;SDS011;48240;52.962;5.790;2023-04-24T11:39:46;3.80;;;1.30;;
62256;SDS011;48240;52.962;5.790;2023-04-24T11:42:14;3.78;;;1.20;;
62256;SDS011;48240;52.962;5.790;2023-04-24T11:44:41;5.18;;;1.33;;
62256;SDS011;48240;52.962;5.790;2023-04-24T11:47:07;5.15;;;1.45;;
62256;SDS011;48240;52.962;5.790;2023-04-24T11:49:36;2.88;;;1.35;;
62256;SDS011;48240;52.962;5.790;2023-04-24T11:52:02;4.10;;;0.93;;
62256;SDS011;48240;52.962;5.790;2023-04-24T11:54:28;4.95;;;1.00;;
62256;SDS011;48240;52.962;5.790;2023-04-24T11:56:55;2.05;;;0.90;;
62256;SDS011;48240;52.962;5.790;2023-04-24T11:59:21;4.72;;;1.30;;
62256;SDS011;48240;52.962;5.790;2023-04-24T12:01:48;4.20;;;1.27;;
62256;SDS011;48240;52.962;5.790;2023-04-24T12:04:15;3.83;;;1.10;;
62256;SDS011;48240;52.962;5.790;2023-04-24T12:09:26;3.10;;;1.05;;
62256;SDS011;48240;52.962;5.790;2023-04-24T12:11:53;4.40;;;1.08;;
62256;SDS011;48240;52.962;5.790;2023-04-24T12:14:22;3.85;;;1.00;;
62256;SDS011;48240;52.962;5.790;2023-04-24T12:16:51;4.68;;;1.15;;
62256;SDS011;48240;52.962;5.790;2023-04-24T12:19:18;2.97;;;1.10;;
62256;SDS011;48240;52.962;5.790;2023-04-24T12:21:45;3.42;;;1.10;;
62256;SDS011;48240;52.962;5.790;2023-04-24T12:24:23;3.20;;;0.80;;
62256;SDS011;48240;52.962;5.790;2023-04-24T12:26:50;3.85;;;1.00;;
62256;SDS011;48240;52.962;5.790;2023-04-24T12:29:19;3.67;;;0.90;;
62256;SDS011;48240;52.962;5.790;2023-04-24T12:31:46;3.58;;;1.17;;
62256;SDS011;48240;52.962;5.790;2023-04-24T12:34:21;3.22;;;1.00;;
62256;SDS011;48240;52.962;5.790;2023-04-24T12:36:48;4.20;;;1.08;;
62256;SDS011;48240;52.962;5.790;2023-04-24T12:39:18;3.30;;;1.00;;
62256;SDS011;48240;52.962;5.790;2023-04-24T12:41:56;4.10;;;0.90;;
62256;SDS011;48240;52.962;5.790;2023-04-24T12:44:32;3.88;;;0.90;;
62256;SDS011;48240;52.962;5.790;2023-04-24T12:46:59;2.97;;;1.05;;
62256;SDS011;48240;52.962;5.790;2023-04-24T12:49:26;5.90;;;1.10;;
62256;SDS011;48240;52.962;5.790;2023-04-24T12:51:52;2.47;;;0.80;;
62256;SDS011;48240;52.962;5.790;2023-04-24T12:54:18;4.63;;;0.80;;
62256;SDS011;48240;52.962;5.790;2023-04-24T12:56:45;3.20;;;1.05;;
62256;SDS011;48240;52.962;5.790;2023-04-24T12:59:11;3.47;;;0.90;;
62256;SDS011;48240;52.962;5.790;2023-04-24T13:01:37;3.80;;;0.80;;
62256;SDS011;48240;52.962;5.790;2023-04-24T13:04:03;2.90;;;0.80;;
62256;SDS011;48240;52.962;5.790;2023-04-24T13:06:29;3.35;;;0.80;;
62256;SDS011;48240;52.962;5.790;2023-04-24T13:08:56;3.42;;;0.95;;
62256;SDS011;48240;52.962;5.790;2023-04-24T13:11:23;4.47;;;0.90;;
62256;SDS011;48240;52.962;5.790;2023-04-24T13:13:49;4.45;;;1.00;;
62256;SDS011;48240;52.962;5.790;2023-04-24T13:16:15;7.25;;;0.95;;
62256;SDS011;48240;52.962;5.790;2023-04-24T13:18:41;3.05;;;0.80;;
62256;SDS011;48240;52.962;5.790;2023-04-24T13:21:08;3.65;;;0.90;;
62256;SDS011;48240;52.962;5.790;2023-04-24T13:23:34;3.58;;;1.00;;
62256;SDS011;48240;52.962;5.790;2023-04-24T13:26:00;3.42;;;0.75;;
62256;SDS011;48240;52.962;5.790;2023-04-24T13:28:27;1.88;;;0.70;;
62256;SDS011;48240;52.962;5.790;2023-04-24T13:30:54;4.03;;;1.00;;
62256;SDS011;48240;52.962;5.790;2023-04-24T13:33:20;5.65;;;1.00;;
62256;SDS011;48240;52.962;5.790;2023-04-24T13:35:46;3.20;;;1.02;;
62256;SDS011;48240;52.962;5.790;2023-04-24T13:38:13;2.50;;;0.70;;
62256;SDS011;48240;52.962;5.790;2023-04-24T13:40:39;4.60;;;1.10;;
62256;SDS011;48240;52.962;5.790;2023-04-24T13:43:05;2.22;;;0.90;;
62256;SDS011;48240;52.962;5.790;2023-04-24T13:45:31;4.00;;;1.13;;
62256;SDS011;48240;52.962;5.790;2023-04-24T13:47:57;4.30;;;0.93;;
62256;SDS011;48240;52.962;5.790;2023-04-24T13:50:23;2.33;;;0.80;;
62256;SDS011;48240;52.962;5.790;2023-04-24T13:52:49;2.72;;;0.63;;
62256;SDS011;48240;52.962;5.790;2023-04-24T13:55:16;3.85;;;0.80;;
62256;SDS011;48240;52.962;5.790;2023-04-24T13:57:42;3.78;;;0.70;;
62256;SDS011;48240;52.962;5.790;2023-04-24T14:00:08;5.43;;;0.82;;
62256;SDS011;48240;52.962;5.790;2023-04-24T14:02:36;3.45;;;0.95;;
62256;SDS011;48240;52.962;5.790;2023-04-24T14:05:02;2.78;;;0.95;;
62256;SDS011;48240;52.962;5.790;2023-04-24T14:07:31;4.55;;;0.90;;
62256;SDS011;48240;52.962;5.790;2023-04-24T14:09:57;5.18;;;1.20;;
62256;SDS011;48240;52.962;5.790;2023-04-24T14:12:23;4.10;;;1.02;;
62256;SDS011;48240;52.962;5.790;2023-04-24T14:14:50;4.32;;;0.85;;
62256;SDS011;48240;52.962;5.790;2023-04-24T14:17:17;4.47;;;1.08;;
62256;SDS011;48240;52.962;5.790;2023-04-24T14:19:43;5.22;;;1.50;;
62256;SDS011;48240;52.962;5.790;2023-04-24T14:22:09;4.90;;;0.98;;
62256;SDS011;48240;52.962;5.790;2023-04-24T14:24:35;4.40;;;1.23;;
62256;SDS011;48240;52.962;5.790;2023-04-24T14:27:01;3.80;;;1.15;;
62256;SDS011;48240;52.962;5.790;2023-04-24T14:29:28;4.28;;;1.20;;
62256;SDS011;48240;52.962;5.790;2023-04-24T14:31:54;3.90;;;0.93;;
62256;SDS011;48240;52.962;5.790;2023-04-24T14:34:20;6.45;;;1.10;;
62256;SDS011;48240;52.962;5.790;2023-04-24T14:36:46;4.50;;;1.00;;
62256;SDS011;48240;52.962;5.790;2023-04-24T14:39:12;4.55;;;1.13;;
62256;SDS011;48240;52.962;5.790;2023-04-24T14:41:38;7.43;;;1.30;;
62256;SDS011;48240;52.962;5.790;2023-04-24T14:44:05;4.35;;;1.15;;
62256;SDS011;48240;52.962;5.790;2023-04-24T14:46:31;4.88;;;1.30;;
62256;SDS011;48240;52.962;5.790;2023-04-24T14:48:57;4.93;;;1.10;;
62256;SDS011;48240;52.962;5.790;2023-04-24T14:51:23;4.82;;;1.17;;
62256;SDS011;48240;52.962;5.790;2023-04-24T14:53:50;6.40;;;1.20;;
62256;SDS011;48240;52.962;5.790;2023-04-24T14:56:16;5.72;;;1.20;;
62256;SDS011;48240;52.962;5.790;2023-04-24T14:58:43;4.65;;;1.10;;
62256;SDS011;48240;52.962;5.790;2023-04-24T15:01:09;4.78;;;1.27;;
62256;SDS011;48240;52.962;5.790;2023-04-24T15:03:36;5.38;;;1.23;;
62256;SDS011;48240;52.962;5.790;2023-04-24T15:06:02;4.22;;;1.20;;
62256;SDS011;48240;52.962;5.790;2023-04-24T15:08:28;4.05;;;1.10;;
62256;SDS011;48240;52.962;5.790;2023-04-24T15:10:54;6.15;;;1.45;;
62256;SDS011;48240;52.962;5.790;2023-04-24T15:13:20;6.15;;;1.23;;
62256;SDS011;48240;52.962;5.790;2023-04-24T15:15:46;4.78;;;1.38;;
62256;SDS011;48240;52.962;5.790;2023-04-24T15:18:12;7.65;;;1.77;;
62256;SDS011;48240;52.962;5.790;2023-04-24T15:20:39;4.95;;;1.30;;
62256;SDS011;48240;52.962;5.790;2023-04-24T15:23:07;7.80;;;1.60;;
62256;SDS011;48240;52.962;5.790;2023-04-24T15:25:34;5.07;;;1.27;;
62256;SDS011;48240;52.962;5.790;2023-04-24T15:28:00;6.57;;;1.48;;
62256;SDS011;48240;52.962;5.790;2023-04-24T15:30:26;5.35;;;1.00;;
62256;SDS011;48240;52.962;5.790;2023-04-24T15:32:52;6.05;;;1.27;;
62256;SDS011;48240;52.962;5.790;2023-04-24T15:35:18;5.40;;;1.20;;
62256;SDS011;48240;52.962;5.790;2023-04-24T15:37:44;5.47;;;1.30;;
62256;SDS011;48240;52.962;5.790;2023-04-24T15:40:10;4.82;;;1.40;;
62256;SDS011;48240;52.962;5.790;2023-04-24T15:42:38;6.05;;;1.90;;
62256;SDS011;48240;52.962;5.790;2023-04-24T15:45:05;8.20;;;1.70;;
62256;SDS011;48240;52.962;5.790;2023-04-24T15:47:32;8.88;;;1.50;;
62256;SDS011;48240;52.962;5.790;2023-04-24T15:49:58;8.43;;;1.80;;
62256;SDS011;48240;52.962;5.790;2023-04-24T15:52:24;7.82;;;1.85;;
62256;SDS011;48240;52.962;5.790;2023-04-24T15:54:50;7.80;;;2.03;;
62256;SDS011;48240;52.962;5.790;2023-04-24T15:57:16;10.38;;;1.95;;
62256;SDS011;48240;52.962;5.790;2023-04-24T15:59:43;5.70;;;1.70;;
62256;SDS011;48240;52.962;5.790;2023-04-24T16:02:09;7.40;;;1.50;;
62256;SDS011;48240;52.962;5.790;2023-04-24T16:04:38;6.45;;;1.67;;
62256;SDS011;48240;52.962;5.790;2023-04-24T16:07:04;7.30;;;1.83;;
62256;SDS011;48240;52.962;5.790;2023-04-24T16:09:30;6.18;;;1.50;;
62256;SDS011;48240;52.962;5.790;2023-04-24T16:11:56;5.75;;;1.55;;
62256;SDS011;48240;52.962;5.790;2023-04-24T16:14:23;6.50;;;1.50;;
62256;SDS011;48240;52.962;5.790;2023-04-24T16:16:50;5.18;;;1.52;;
62256;SDS011;48240;52.962;5.790;2023-04-24T16:19:16;7.80;;;1.65;;
62256;SDS011;48240;52.962;5.790;2023-04-24T16:21:42;7.20;;;1.38;;
62256;SDS011;48240;52.962;5.790;2023-04-24T16:24:08;5.40;;;1.55;;
62256;SDS011;48240;52.962;5.790;2023-04-24T16:26:34;5.90;;;1.50;;
62256;SDS011;48240;52.962;5.790;2023-04-24T16:29:00;7.80;;;1.70;;
62256;SDS011;48240;52.962;5.790;2023-04-24T16:31:26;5.50;;;1.35;;
62256;SDS011;48240;52.962;5.790;2023-04-24T16:33:52;4.60;;;1.52;;
62256;SDS011;48240;52.962;5.790;2023-04-24T16:36:19;6.53;;;1.70;;
62256;SDS011;48240;52.962;5.790;2023-04-24T16:38:46;7.85;;;1.80;;
62256;SDS011;48240;52.962;5.790;2023-04-24T16:41:13;5.93;;;1.50;;
62256;SDS011;48240;52.962;5.790;2023-04-24T16:43:39;7.90;;;1.70;;
62256;SDS011;48240;52.962;5.790;2023-04-24T16:46:05;9.05;;;1.85;;
62256;SDS011;48240;52.962;5.790;2023-04-24T16:48:31;6.03;;;1.67;;
62256;SDS011;48240;52.962;5.790;2023-04-24T16:50:58;10.95;;;1.85;;
62256;SDS011;48240;52.962;5.790;2023-04-24T16:53:24;5.05;;;2.20;;
62256;SDS011;48240;52.962;5.790;2023-04-24T16:55:50;6.18;;;1.50;;
62256;SDS011;48240;52.962;5.790;2023-04-24T16:58:16;7.35;;;1.70;;
62256;SDS011;48240;52.962;5.790;2023-04-24T17:00:42;6.93;;;1.90;;
62256;SDS011;48240;52.962;5.790;2023-04-24T17:03:09;6.68;;;1.60;;
62256;SDS011;48240;52.962;5.790;2023-04-24T17:05:35;7.22;;;1.90;;
62256;SDS011;48240;52.962;5.790;2023-04-24T17:08:01;6.03;;;1.73;;
62256;SDS011;48240;52.962;5.790;2023-04-24T17:10:27;5.13;;;1.73;;
62256;SDS011;48240;52.962;5.790;2023-04-24T17:12:54;4.97;;;2.17;;
62256;SDS011;48240;52.962;5.790;2023-04-24T17:15:21;7.25;;;1.75;;
62256;SDS011;48240;52.962;5.790;2023-04-24T17:17:48;5.82;;;1.60;;
62256;SDS011;48240;52.962;5.790;2023-04-24T17:20:14;11.90;;;1.85;;
62256;SDS011;48240;52.962;5.790;2023-04-24T17:22:40;5.28;;;1.70;;
62256;SDS011;48240;52.962;5.790;2023-04-24T17:25:06;7.32;;;1.70;;
62256;SDS011;48240;52.962;5.790;2023-04-24T17:27:32;6.13;;;1.30;;
62256;SDS011;48240;52.962;5.790;2023-04-24T17:29:58;7.30;;;1.75;;
62256;SDS011;48240;52.962;5.790;2023-04-24T17:32:25;9.52;;;1.85;;
62256;SDS011;48240;52.962;5.790;2023-04-24T17:34:51;8.52;;;1.77;;
62256;SDS011;48240;52.962;5.790;2023-04-24T17:37:17;7.68;;;1.73;;
62256;SDS011;48240;52.962;5.790;2023-04-24T17:39:47;10.68;;;2.08;;
62256;SDS011;48240;52.962;5.790;2023-04-24T17:42:13;7.78;;;1.55;;
62256;SDS011;48240;52.962;5.790;2023-04-24T17:44:39;12.52;;;1.92;;
62256;SDS011;48240;52.962;5.790;2023-04-24T17:47:05;7.63;;;1.50;;
62256;SDS011;48240;52.962;5.790;2023-04-24T17:49:31;6.60;;;1.55;;
62256;SDS011;48240;52.962;5.790;2023-04-24T17:51:57;8.55;;;1.38;;
62256;SDS011;48240;52.962;5.790;2023-04-24T17:54:23;8.50;;;1.83;;
62256;SDS011;48240;52.962;5.790;2023-04-24T17:56:49;4.78;;;1.60;;
62256;SDS011;48240;52.962;5.790;2023-04-24T17:59:17;5.45;;;1.77;;
62256;SDS011;48240;52.962;5.790;2023-04-24T18:01:44;3.85;;;1.30;;
62256;SDS011;48240;52.962;5.790;2023-04-24T18:04:10;5.60;;;1.73;;
62256;SDS011;48240;52.962;5.790;2023-04-24T18:06:36;9.48;;;1.83;;
62256;SDS011;48240;52.962;5.790;2023-04-24T18:09:03;5.38;;;1.38;;
62256;SDS011;48240;52.962;5.790;2023-04-24T18:11:29;7.57;;;1.60;;
62256;SDS011;48240;52.962;5.790;2023-04-24T18:13:56;4.00;;;1.33;;
62256;SDS011;48240;52.962;5.790;2023-04-24T18:16:22;6.43;;;1.55;;
62256;SDS011;48240;52.962;5.790;2023-04-24T18:18:48;5.93;;;1.42;;
62256;SDS011;48240;52.962;5.790;2023-04-24T18:21:14;3.50;;;1.38;;
62256;SDS011;48240;52.962;5.790;2023-04-24T18:23:40;7.72;;;1.25;;
62256;SDS011;48240;52.962;5.790;2023-04-24T18:26:06;7.60;;;1.95;;
62256;SDS011;48240;52.962;5.790;2023-04-24T18:28:32;7.28;;;1.52;;
62256;SDS011;48240;52.962;5.790;2023-04-24T18:30:59;8.13;;;1.27;;
62256;SDS011;48240;52.962;5.790;2023-04-24T18:33:26;5.75;;;1.50;;
62256;SDS011;48240;52.962;5.790;2023-04-24T18:35:52;8.25;;;1.80;;
62256;SDS011;48240;52.962;5.790;2023-04-24T18:38:18;5.10;;;1.20;;
62256;SDS011;48240;52.962;5.790;2023-04-24T18:40:44;6.78;;;1.60;;
62256;SDS011;48240;52.962;5.790;2023-04-24T18:43:10;4.95;;;1.50;;
62256;SDS011;48240;52.962;5.790;2023-04-24T18:45:36;4.32;;;1.42;;
62256;SDS011;48240;52.962;5.790;2023-04-24T18:48:02;2.97;;;1.13;;
62256;SDS011;48240;52.962;5.790;2023-04-24T18:50:29;4.50;;;1.35;;
62256;SDS011;48240;52.962;5.790;2023-04-24T18:52:56;3.80;;;1.20;;
62256;SDS011;48240;52.962;5.790;2023-04-24T18:55:23;4.55;;;1.55;;
62256;SDS011;48240;52.962;5.790;2023-04-24T18:57:49;3.35;;;1.40;;
62256;SDS011;48240;52.962;5.790;2023-04-24T19:00:15;6.18;;;1.45;;
62256;SDS011;48240;52.962;5.790;2023-04-24T19:02:42;4.88;;;1.40;;
62256;SDS011;48240;52.962;5.790;2023-04-24T19:05:08;5.28;;;1.20;;
62256;SDS011;48240;52.962;5.790;2023-04-24T19:07:36;7.20;;;1.67;;
62256;SDS011;48240;52.962;5.790;2023-04-24T19:10:02;4.32;;;1.60;;
62256;SDS011;48240;52.962;5.790;2023-04-24T19:12:28;6.18;;;1.45;;
62256;SDS011;48240;52.962;5.790;2023-04-24T19:14:54;5.10;;;1.33;;
62256;SDS011;48240;52.962;5.790;2023-04-24T19:17:21;5.10;;;1.20;;
62256;SDS011;48240;52.962;5.790;2023-04-24T19:19:49;4.20;;;1.35;;
62256;SDS011;48240;52.962;5.790;2023-04-24T19:22:16;4.88;;;1.60;;
62256;SDS011;48240;52.962;5.790;2023-04-24T19:24:42;3.92;;;1.20;;